Portada
METAR-TAF:

METAR-TAF

Aeroports :

Port-of-Spain, Illa de Trinitat, Trinitat i Tobago

latitud: 10-37N, longitud: 061-21W, altitud: 12 m

Observació

L'informe es va fer fa 23 minuts, a les 17:00 UTC
Vent 15 kt del Est/Sud-Est
Temperatura 32°C
Humitat 56%
Pressió 1012 hPa
Visibilitat 10 km o més
Núvols disperses a una alçada de 2200 ft
Núvols disperses a una alçada de 4200 ft

METAR: TTPP 031700Z 11015KT 9999 SCT022 SCT042 32/22 Q1012 NOSIG

Hora: 13:23 (17:23 UTC)

Pronòstic

L'informe es va fer fa 7 hores i 23 minuts, a les 10:00 UTC
Pronòstic vàlid del 03 a les 12 UTC al 04 a les 12 UTC
Vent 12 kt del Est/Sud-Est
Visibilitat 10 km o més
Núvols disperses a una alçada de 2200 ft
Evolucionant progressivament
l' 04 a les 00 UTC al 04 a les 02 UTC
Vent 4 kt del Est
Escasses núvols a una alçada de 1600 ft

TAF: TTPP 031000Z 0312/0412 11012KT 9999 SCT022 BECMG 0400/0402 10004KT FEW016

Observacions i pronòstics meteorològics de més de 4000 aeroports (METAR i TAF).

Les estacions disponibles són els punts grocs i vermells al mapa.

Posi el ratolí al punt desitjat per veure el nom de l'estació.

Feu clic per veure les observacions i els pronòstics meteorològics.

Per canviar el mapa: feu clic els botons verds amb una creu de color negre per apropar; al botó verd amb un guió per allunyar la imatge; o en les fletxes verdes per a mapes adjacents.


METAR-TAF: